State College, Georgia
Current Conditions -  °F | °C
As of 10:58 AM on Tuesday 21 Oct 2014 (Local Time) from KSVN Reporting Station
Clear Clear  
Wind Chill: 74°   Ceiling: Unl
Heat Index: 74°   Visibility: 10mi
Dew Point: 57°   Wind: 7mph
Humidity: 57%   Direction: 310°NW
Pressure: 29.97"   Gusts: NA
Location:  32.0515°N, 81.0542°W
Report Text: KSVN 211458Z AUTO 31006KT 10SM CLR 23/14 A2997 RMK AO2 SLP152 T02310141 50006
Loading
Personal Weather Stations






























Interactive Weather Map
Tropical Storm Tracking
New forecast layout! Learn more

10-Day Weather Forecast

Advertisements
Track Severe Weather on mobile